createdAt,value
2023-03-08T00:00:15.506Z,0.00
2023-03-08T00:01:15.501Z,0.00
2023-03-08T00:02:15.499Z,0.00
2023-03-08T00:03:15.511Z,0.00
2023-03-08T00:04:15.806Z,0.00
2023-03-08T00:05:15.505Z,0.00
2023-03-08T00:06:15.512Z,0.00
2023-03-08T00:07:15.499Z,0.00
2023-03-08T00:08:15.534Z,0.00
2023-03-08T00:09:15.500Z,0.00
2023-03-08T00:10:15.500Z,0.00
2023-03-08T00:11:15.507Z,0.00
2023-03-08T00:12:15.523Z,0.00
2023-03-08T00:13:15.502Z,0.00
2023-03-08T00:14:15.499Z,0.00
2023-03-08T00:15:15.501Z,0.00
2023-03-08T00:16:15.550Z,0.00
2023-03-08T00:17:15.501Z,0.00
2023-03-08T00:18:15.512Z,0.00
2023-03-08T00:19:15.501Z,0.00
2023-03-08T00:20:15.525Z,0.00
2023-03-08T00:21:15.509Z,0.00
2023-03-08T00:22:15.517Z,0.00
2023-03-08T00:23:15.507Z,0.00
2023-03-08T00:24:15.505Z,0.00
2023-03-08T00:25:15.501Z,0.00
2023-03-08T00:26:15.517Z,0.00
2023-03-08T00:27:15.500Z,0.00
2023-03-08T00:28:15.534Z,0.00
2023-03-08T00:29:15.615Z,0.00
2023-03-08T00:30:15.513Z,0.00
2023-03-08T00:31:15.622Z,0.00
2023-03-08T00:32:15.587Z,0.00
2023-03-08T00:33:15.504Z,0.00
2023-03-08T00:34:15.514Z,0.00
2023-03-08T00:35:15.512Z,0.00
2023-03-08T00:36:15.518Z,0.00
2023-03-08T00:37:15.516Z,0.00
2023-03-08T00:38:15.508Z,0.00
2023-03-08T00:39:15.510Z,0.00
2023-03-08T00:40:15.514Z,0.00
2023-03-08T00:41:15.511Z,0.00
2023-03-08T00:42:15.508Z,0.00
2023-03-08T00:43:15.512Z,0.00
2023-03-08T00:44:15.547Z,0.00
2023-03-08T00:45:15.508Z,0.00
2023-03-08T00:46:15.556Z,0.00
2023-03-08T00:47:15.518Z,0.00
2023-03-08T00:48:15.512Z,0.00
2023-03-08T00:49:15.519Z,0.00
2023-03-08T00:50:15.515Z,0.00
2023-03-08T00:51:15.518Z,0.00
2023-03-08T00:52:15.521Z,0.00
2023-03-08T00:53:15.513Z,0.00
2023-03-08T00:54:15.510Z,0.00
2023-03-08T00:55:15.520Z,0.00
2023-03-08T00:56:15.516Z,0.00
2023-03-08T00:57:15.523Z,0.00
2023-03-08T00:58:15.520Z,0.00
2023-03-08T00:59:15.514Z,0.00
2023-03-08T01:00:15.543Z,0.00
2023-03-08T01:01:15.609Z,0.00
2023-03-08T01:02:15.512Z,0.00
2023-03-08T01:03:15.520Z,0.00
2023-03-08T01:04:15.525Z,0.00
2023-03-08T01:05:15.520Z,0.00
2023-03-08T01:06:15.512Z,0.00
2023-03-08T01:07:15.524Z,0.00
2023-03-08T01:08:15.520Z,0.00
2023-03-08T01:09:15.513Z,0.00
2023-03-08T01:10:15.512Z,0.00
2023-03-08T01:11:15.521Z,0.00
2023-03-08T01:12:15.526Z,0.00
2023-03-08T01:13:15.514Z,0.00
2023-03-08T01:14:15.524Z,0.00
2023-03-08T01:15:15.514Z,0.00
2023-03-08T01:16:15.637Z,0.00
2023-03-08T01:17:15.512Z,0.00
2023-03-08T01:18:15.520Z,0.00
2023-03-08T01:19:15.521Z,0.00
2023-03-08T01:20:15.516Z,0.00
2023-03-08T01:21:15.520Z,0.00
2023-03-08T01:22:15.514Z,0.00
2023-03-08T01:23:15.521Z,0.00
2023-03-08T01:24:15.518Z,0.00
2023-03-08T01:25:15.513Z,0.00
2023-03-08T01:26:15.523Z,0.00
2023-03-08T01:27:15.513Z,0.00
2023-03-08T01:28:15.523Z,0.00
2023-03-08T01:29:15.517Z,0.00
2023-03-08T01:30:15.522Z,0.00
2023-03-08T01:31:15.519Z,0.00
2023-03-08T01:32:15.593Z,0.00
2023-03-08T01:33:15.514Z,0.00
2023-03-08T01:34:15.515Z,0.00
2023-03-08T01:35:15.538Z,0.00
2023-03-08T01:36:15.522Z,0.00
2023-03-08T01:37:15.517Z,0.00
2023-03-08T01:38:15.517Z,0.00
2023-03-08T01:39:15.521Z,0.00
2023-03-08T01:40:15.517Z,0.00
2023-03-08T01:41:15.521Z,0.00
2023-03-08T01:42:15.542Z,0.00
2023-03-08T01:43:15.522Z,0.00
2023-03-08T01:44:15.535Z,0.00
2023-03-08T01:45:15.514Z,0.00
2023-03-08T01:46:15.520Z,0.00
2023-03-08T01:47:15.524Z,0.00
2023-03-08T01:48:15.543Z,0.00
2023-03-08T01:49:15.527Z,0.00
2023-03-08T01:50:15.525Z,0.00
2023-03-08T01:51:15.532Z,0.00
2023-03-08T01:52:15.519Z,0.00
2023-03-08T01:53:15.521Z,0.00
2023-03-08T01:54:15.518Z,0.00
2023-03-08T01:55:15.526Z,0.00
2023-03-08T01:56:15.523Z,0.00
2023-03-08T01:57:15.518Z,0.00
2023-03-08T01:58:15.519Z,0.00
2023-03-08T01:59:15.521Z,0.00
2023-03-08T02:00:15.526Z,0.00
2023-03-08T02:01:15.581Z,0.00
2023-03-08T02:02:15.519Z,0.00
2023-03-08T02:03:15.529Z,0.00
2023-03-08T02:04:15.545Z,0.00
2023-03-08T02:05:15.522Z,0.00
2023-03-08T02:06:15.534Z,0.00
2023-03-08T02:07:15.527Z,0.00
2023-03-08T02:08:15.534Z,0.00
2023-03-08T02:09:15.527Z,0.00
2023-03-08T02:10:15.528Z,0.00
2023-03-08T02:11:15.532Z,0.00
2023-03-08T02:12:15.533Z,0.00
2023-03-08T02:13:15.533Z,0.00
2023-03-08T02:14:15.529Z,0.00
2023-03-08T02:15:15.549Z,0.00
2023-03-08T02:16:15.542Z,0.00
2023-03-08T02:17:15.529Z,0.00
2023-03-08T02:18:15.544Z,0.00
2023-03-08T02:19:15.541Z,0.00
2023-03-08T02:20:15.562Z,0.00
2023-03-08T02:21:15.539Z,0.00
2023-03-08T02:22:15.554Z,0.00
2023-03-08T02:23:15.541Z,0.00
2023-03-08T02:24:15.545Z,0.00
2023-03-08T02:25:15.537Z,0.00
2023-03-08T02:26:15.538Z,0.00
2023-03-08T02:27:15.546Z,0.00
2023-03-08T02:28:15.550Z,0.00
2023-03-08T02:29:15.548Z,0.00
2023-03-08T02:30:15.577Z,0.00
2023-03-08T02:31:15.550Z,0.00
2023-03-08T02:32:15.578Z,0.00
2023-03-08T02:33:15.546Z,0.00
2023-03-08T02:34:15.549Z,0.00
2023-03-08T02:35:15.548Z,0.00
2023-03-08T02:36:15.585Z,0.00
2023-03-08T02:37:15.546Z,0.00
2023-03-08T02:38:15.553Z,0.00
2023-03-08T02:39:15.547Z,0.00
2023-03-08T02:40:15.559Z,0.00
2023-03-08T02:41:15.549Z,0.00
2023-03-08T02:42:15.558Z,0.00
2023-03-08T02:43:15.557Z,0.00
2023-03-08T02:44:15.561Z,0.00
2023-03-08T02:45:15.561Z,0.00
2023-03-08T02:46:15.550Z,0.00
2023-03-08T02:47:15.550Z,0.00
2023-03-08T02:48:15.562Z,0.00
2023-03-08T02:49:15.558Z,0.00
2023-03-08T02:50:15.561Z,0.00
2023-03-08T02:51:15.557Z,0.00
2023-03-08T02:52:15.575Z,0.00
2023-03-08T02:53:15.577Z,0.00
2023-03-08T02:54:16.983Z,0.00
2023-03-08T02:55:15.562Z,0.00
2023-03-08T02:56:15.556Z,0.00
2023-03-08T02:57:15.565Z,0.00
2023-03-08T02:58:15.560Z,0.00
2023-03-08T02:59:15.564Z,0.00
2023-03-08T03:00:15.563Z,0.00
2023-03-08T03:01:15.621Z,0.00
2023-03-08T03:02:15.559Z,0.00
2023-03-08T03:03:15.566Z,0.00
2023-03-08T03:04:15.567Z,0.00
2023-03-08T03:05:15.568Z,0.00
2023-03-08T03:06:15.640Z,0.00
2023-03-08T03:07:15.566Z,0.00
2023-03-08T03:08:15.598Z,0.00
2023-03-08T03:09:15.563Z,0.00
2023-03-08T03:10:15.570Z,0.00
2023-03-08T03:11:15.571Z,0.00
2023-03-08T03:12:15.564Z,0.00
2023-03-08T03:13:15.576Z,0.00
2023-03-08T03:14:15.563Z,0.00
2023-03-08T03:15:15.569Z,0.00
2023-03-08T03:16:15.624Z,0.00
2023-03-08T03:17:15.566Z,0.00
2023-03-08T03:18:15.568Z,0.00
2023-03-08T03:19:15.565Z,0.00
2023-03-08T03:20:15.563Z,0.00
2023-03-08T03:21:15.573Z,0.00
2023-03-08T03:22:15.571Z,0.00
2023-03-08T03:23:15.567Z,0.00
2023-03-08T03:24:15.587Z,0.00
2023-03-08T03:25:15.574Z,0.00
2023-03-08T03:26:15.563Z,0.00
2023-03-08T03:27:15.563Z,0.00
2023-03-08T03:28:15.569Z,0.00
2023-03-08T03:29:15.565Z,0.00
2023-03-08T03:30:15.579Z,0.00
2023-03-08T03:31:15.622Z,0.00
2023-03-08T03:32:15.600Z,0.00
2023-03-08T03:33:15.570Z,0.00
2023-03-08T03:34:15.563Z,0.00
2023-03-08T03:35:15.569Z,0.00
2023-03-08T03:36:15.569Z,0.00
2023-03-08T03:37:15.564Z,0.00
2023-03-08T03:38:15.571Z,0.00
2023-03-08T03:39:15.573Z,0.00
2023-03-08T03:40:15.600Z,0.00
2023-03-08T03:41:15.572Z,0.00
2023-03-08T03:42:15.572Z,0.00
2023-03-08T03:43:15.574Z,0.00
2023-03-08T03:44:15.569Z,0.00
2023-03-08T03:45:15.567Z,0.00
2023-03-08T03:46:15.624Z,0.00
2023-03-08T03:47:15.578Z,0.00
2023-03-08T03:48:15.570Z,0.00
2023-03-08T03:49:15.570Z,0.00
2023-03-08T03:50:15.571Z,0.00
2023-03-08T03:51:15.581Z,0.00
2023-03-08T03:52:15.581Z,0.00
2023-03-08T03:53:15.575Z,0.00
2023-03-08T03:54:15.581Z,0.00
2023-03-08T03:55:15.585Z,0.00
2023-03-08T03:56:15.657Z,0.00
2023-03-08T03:57:15.585Z,0.00
2023-03-08T03:58:15.586Z,0.00
2023-03-08T03:59:15.584Z,0.00
2023-03-08T04:00:15.599Z,0.00
2023-03-08T04:01:15.587Z,0.00
2023-03-08T04:02:15.590Z,0.00
2023-03-08T04:03:15.733Z,0.00
2023-03-08T04:04:15.582Z,0.00
2023-03-08T04:05:15.600Z,0.00
2023-03-08T04:06:15.583Z,0.00
2023-03-08T04:07:15.584Z,0.00
2023-03-08T04:08:15.585Z,0.00
2023-03-08T04:09:15.610Z,0.00
2023-03-08T04:10:15.593Z,0.00
2023-03-08T04:11:15.590Z,0.00
2023-03-08T04:12:15.716Z,0.00
2023-03-08T04:13:15.652Z,0.00
2023-03-08T04:14:15.594Z,0.00
2023-03-08T04:15:15.587Z,0.00
2023-03-08T04:16:15.651Z,0.00
2023-03-08T04:17:15.599Z,0.00
2023-03-08T04:18:15.591Z,0.00
2023-03-08T04:19:15.596Z,0.00
2023-03-08T04:20:15.597Z,0.00
2023-03-08T04:21:15.586Z,0.00
2023-03-08T04:22:15.597Z,0.00
2023-03-08T04:23:15.594Z,0.00
2023-03-08T04:24:15.597Z,0.00
2023-03-08T04:25:15.594Z,0.00
2023-03-08T04:26:15.593Z,0.00
2023-03-08T04:27:15.596Z,0.00
2023-03-08T04:28:15.613Z,0.00
2023-03-08T04:29:15.588Z,0.00
2023-03-08T04:30:15.596Z,0.00
2023-03-08T04:31:15.609Z,0.00
2023-03-08T04:32:15.674Z,0.00
2023-03-08T04:33:15.603Z,0.00
2023-03-08T04:34:15.597Z,0.00
2023-03-08T04:35:15.593Z,0.00
2023-03-08T04:36:15.591Z,0.00
2023-03-08T04:37:15.594Z,0.00
2023-03-08T04:38:15.591Z,0.00
2023-03-08T04:39:15.600Z,0.00
2023-03-08T04:40:15.597Z,0.00
2023-03-08T04:41:15.603Z,0.00
2023-03-08T04:42:15.592Z,0.00
2023-03-08T04:43:15.596Z,0.00
2023-03-08T04:44:15.642Z,0.00
2023-03-08T04:45:15.596Z,0.00
2023-03-08T04:46:15.633Z,0.00
2023-03-08T04:47:15.598Z,0.00
2023-03-08T04:48:15.604Z,0.00
2023-03-08T04:49:15.599Z,0.00
2023-03-08T04:50:15.605Z,0.00
2023-03-08T04:51:15.617Z,0.00
2023-03-08T04:52:15.601Z,0.00
2023-03-08T04:53:15.607Z,0.00
2023-03-08T04:54:15.616Z,0.00
2023-03-08T04:55:15.606Z,0.00
2023-03-08T04:56:15.611Z,0.00
2023-03-08T04:57:15.606Z,0.00
2023-03-08T04:58:15.600Z,0.00
2023-03-08T04:59:15.609Z,0.00
2023-03-08T05:00:15.636Z,0.00
2023-03-08T05:01:15.614Z,0.00
2023-03-08T05:02:15.609Z,0.00
2023-03-08T05:03:15.612Z,0.00
2023-03-08T05:04:15.604Z,0.00
2023-03-08T05:05:15.723Z,0.00
2023-03-08T05:06:15.616Z,0.00
2023-03-08T05:07:15.608Z,0.00
2023-03-08T05:08:15.619Z,0.00
2023-03-08T05:09:15.607Z,0.00
2023-03-08T05:10:15.608Z,0.00
2023-03-08T05:11:15.611Z,0.00
2023-03-08T05:12:15.617Z,0.00
2023-03-08T05:13:15.620Z,0.00
2023-03-08T05:14:16.222Z,0.00
2023-03-08T05:15:15.617Z,0.00
2023-03-08T05:16:15.785Z,0.00
2023-03-08T05:17:15.608Z,0.00
2023-03-08T05:18:15.619Z,0.00
2023-03-08T05:19:15.611Z,0.00
2023-03-08T05:20:15.612Z,0.00
2023-03-08T05:21:15.618Z,0.00
2023-03-08T05:22:15.612Z,0.00
2023-03-08T05:23:15.621Z,0.00
2023-03-08T05:24:15.612Z,0.00
2023-03-08T05:25:15.627Z,0.00
2023-03-08T05:26:15.615Z,0.00
2023-03-08T05:27:15.629Z,0.00
2023-03-08T05:28:15.623Z,0.00
2023-03-08T05:29:15.637Z,0.00
2023-03-08T05:30:15.621Z,0.00
2023-03-08T05:31:15.667Z,0.00
2023-03-08T05:32:15.697Z,0.00
2023-03-08T05:33:15.624Z,0.00
2023-03-08T05:34:15.615Z,0.00
2023-03-08T05:35:15.624Z,0.00
2023-03-08T05:36:15.624Z,0.00
2023-03-08T05:37:15.630Z,0.00
2023-03-08T05:38:15.619Z,0.00
2023-03-08T05:39:15.623Z,0.00
2023-03-08T05:40:15.618Z,0.00
2023-03-08T05:41:15.621Z,0.00
2023-03-08T05:42:15.630Z,0.00
2023-03-08T05:43:15.621Z,0.00
2023-03-08T05:44:15.619Z,0.00
2023-03-08T05:45:15.706Z,5.63
2023-03-08T05:46:15.696Z,5.63
2023-03-08T05:47:15.628Z,5.63
2023-03-08T05:48:15.648Z,5.63
2023-03-08T05:49:15.642Z,5.63
2023-03-08T05:50:15.639Z,5.63
2023-03-08T05:51:15.679Z,5.63
2023-03-08T05:52:15.629Z,5.63
2023-03-08T05:53:15.628Z,5.63
2023-03-08T05:54:15.628Z,11.25
2023-03-08T05:55:15.628Z,11.25
2023-03-08T05:56:15.643Z,11.25
2023-03-08T05:57:15.623Z,11.25
2023-03-08T05:58:15.619Z,11.25
2023-03-08T05:59:15.628Z,16.88
2023-03-08T06:00:15.627Z,16.88
2023-03-08T06:01:15.632Z,16.88
2023-03-08T06:02:15.675Z,16.88
2023-03-08T06:03:15.644Z,16.88
2023-03-08T06:04:15.649Z,22.50
2023-03-08T06:05:15.632Z,22.50
2023-03-08T06:06:15.633Z,22.50
2023-03-08T06:07:15.628Z,28.13
2023-03-08T06:08:15.629Z,28.13
2023-03-08T06:09:15.621Z,28.13
2023-03-08T06:10:15.623Z,33.75
2023-03-08T06:11:15.629Z,33.75
2023-03-08T06:12:15.630Z,39.38
2023-03-08T06:13:15.626Z,39.38
2023-03-08T06:14:15.640Z,39.38
2023-03-08T06:15:15.628Z,39.38
2023-03-08T06:16:15.666Z,39.38
2023-03-08T06:17:15.623Z,39.38
2023-03-08T06:18:15.632Z,39.38
2023-03-08T06:19:15.645Z,39.38
2023-03-08T06:20:15.655Z,45.00
2023-03-08T06:21:15.634Z,45.00
2023-03-08T06:22:15.635Z,45.00
2023-03-08T06:23:15.628Z,45.00
2023-03-08T06:24:15.626Z,45.00
2023-03-08T06:25:15.629Z,45.00
2023-03-08T06:26:15.631Z,45.00
2023-03-08T06:27:15.643Z,45.00
2023-03-08T06:28:15.635Z,45.00
2023-03-08T06:29:15.644Z,45.00
2023-03-08T06:30:15.655Z,45.00
2023-03-08T06:31:15.637Z,50.63
2023-03-08T06:32:15.664Z,50.63
2023-03-08T06:33:15.638Z,50.63
2023-03-08T06:34:15.648Z,56.25
2023-03-08T06:35:15.642Z,56.25
2023-03-08T06:36:15.673Z,61.88
2023-03-08T06:37:15.651Z,61.88
2023-03-08T06:38:15.645Z,67.50
2023-03-08T06:39:15.650Z,67.50
2023-03-08T06:40:15.656Z,67.50
2023-03-08T06:41:15.661Z,67.50
2023-03-08T06:42:15.657Z,67.50
2023-03-08T06:43:15.662Z,67.50
2023-03-08T06:44:15.660Z,67.50
2023-03-08T06:45:15.663Z,73.13
2023-03-08T06:46:15.698Z,73.13
2023-03-08T06:47:15.662Z,73.13
2023-03-08T06:48:15.663Z,78.75
2023-03-08T06:49:15.656Z,78.75
2023-03-08T06:50:15.665Z,84.38
2023-03-08T06:51:15.676Z,84.38
2023-03-08T06:52:15.698Z,90.00
2023-03-08T06:53:15.668Z,90.00
2023-03-08T06:54:15.670Z,90.00
2023-03-08T06:55:15.663Z,95.63
2023-03-08T06:56:15.677Z,95.63
2023-03-08T06:57:15.671Z,95.63
2023-03-08T06:58:15.682Z,101.25
2023-03-08T06:59:15.688Z,101.25
2023-03-08T07:00:15.675Z,106.88
2023-03-08T07:01:15.774Z,106.88
2023-03-08T07:02:15.669Z,106.88
2023-03-08T07:03:15.676Z,112.50
2023-03-08T07:04:15.692Z,112.50
2023-03-08T07:05:15.678Z,118.13
2023-03-08T07:06:15.670Z,118.13
2023-03-08T07:07:15.710Z,118.13
2023-03-08T07:08:15.704Z,118.13
2023-03-08T07:09:15.673Z,123.75
2023-03-08T07:10:15.683Z,129.38
2023-03-08T07:11:15.677Z,135.00
2023-03-08T07:12:15.676Z,140.63
2023-03-08T07:13:15.689Z,140.63
2023-03-08T07:14:15.701Z,146.25
2023-03-08T07:15:15.684Z,146.25
2023-03-08T07:16:15.764Z,146.25
2023-03-08T07:17:15.676Z,146.25
2023-03-08T07:18:16.143Z,151.88
2023-03-08T07:19:15.679Z,157.50
2023-03-08T07:20:15.687Z,163.13
2023-03-08T07:21:15.689Z,157.50
2023-03-08T07:22:15.687Z,151.88
2023-03-08T07:23:15.689Z,157.50
2023-03-08T07:24:15.729Z,157.50
2023-03-08T07:25:15.686Z,157.50
2023-03-08T07:26:15.689Z,157.50
2023-03-08T07:27:15.685Z,157.50
2023-03-08T07:28:15.684Z,157.50
2023-03-08T07:29:15.694Z,157.50
2023-03-08T07:30:15.704Z,163.13
2023-03-08T07:31:15.696Z,163.13
2023-03-08T07:32:15.927Z,168.75
2023-03-08T07:33:15.753Z,174.38
2023-03-08T07:34:15.698Z,180.00
2023-03-08T07:35:15.702Z,180.00
2023-03-08T07:36:15.769Z,180.00
2023-03-08T07:37:15.705Z,180.00
2023-03-08T07:38:15.707Z,180.00
2023-03-08T07:39:15.703Z,180.00
2023-03-08T07:40:15.732Z,185.63
2023-03-08T07:41:15.711Z,174.38
2023-03-08T07:42:15.706Z,174.38
2023-03-08T07:43:15.708Z,168.75
2023-03-08T07:44:15.718Z,168.75
2023-03-08T07:45:15.720Z,174.38
2023-03-08T07:46:15.748Z,174.38
2023-03-08T07:47:15.715Z,180.00
2023-03-08T07:48:15.728Z,185.63
2023-03-08T07:49:15.730Z,185.63
2023-03-08T07:50:15.729Z,191.25
2023-03-08T07:51:15.825Z,191.25
2023-03-08T07:52:15.736Z,191.25
2023-03-08T07:53:15.745Z,191.25
2023-03-08T07:54:15.729Z,196.88
2023-03-08T07:55:15.743Z,202.50
2023-03-08T07:56:15.762Z,208.13
2023-03-08T07:57:15.743Z,208.13
2023-03-08T07:58:15.734Z,208.13
2023-03-08T07:59:15.744Z,202.50
2023-03-08T08:00:15.751Z,202.50
2023-03-08T08:01:15.741Z,208.13
2023-03-08T08:02:15.740Z,208.13
2023-03-08T08:03:15.809Z,208.13
2023-03-08T08:04:15.879Z,196.88
2023-03-08T08:05:15.870Z,196.88
2023-03-08T08:06:15.756Z,196.88
2023-03-08T08:07:15.759Z,196.88
2023-03-08T08:08:15.758Z,208.13
2023-03-08T08:09:15.761Z,213.75
2023-03-08T08:10:15.757Z,213.75
2023-03-08T08:11:15.760Z,219.38
2023-03-08T08:12:15.799Z,219.38
2023-03-08T08:13:15.760Z,225.00
2023-03-08T08:14:15.762Z,236.25
2023-03-08T08:15:15.774Z,241.88
2023-03-08T08:16:16.841Z,253.13
2023-03-08T08:17:15.771Z,258.75
2023-03-08T08:18:15.776Z,275.63
2023-03-08T08:19:15.782Z,286.88
2023-03-08T08:20:15.782Z,315.00
2023-03-08T08:21:15.777Z,320.63
2023-03-08T08:22:15.776Z,326.25
2023-03-08T08:23:15.780Z,365.63
2023-03-08T08:24:15.780Z,371.25
2023-03-08T08:25:15.788Z,399.38
2023-03-08T08:26:15.792Z,393.75
2023-03-08T08:27:15.791Z,371.25
2023-03-08T08:28:15.818Z,376.88
2023-03-08T08:29:15.796Z,399.38
2023-03-08T08:30:15.809Z,393.75
2023-03-08T08:31:15.839Z,399.38
2023-03-08T08:32:15.843Z,416.25
2023-03-08T08:33:15.808Z,393.75
2023-03-08T08:34:15.813Z,427.50
2023-03-08T08:35:15.806Z,410.63
2023-03-08T08:36:15.908Z,399.38
2023-03-08T08:37:15.816Z,393.75
2023-03-08T08:38:15.822Z,360.00
2023-03-08T08:39:15.823Z,354.38
2023-03-08T08:40:15.834Z,343.13
2023-03-08T08:41:15.832Z,376.88
2023-03-08T08:42:15.833Z,360.00
2023-03-08T08:43:15.836Z,360.00
2023-03-08T08:44:15.857Z,320.63
2023-03-08T08:45:15.839Z,298.13
2023-03-08T08:46:15.845Z,320.63
2023-03-08T08:47:15.851Z,326.25
2023-03-08T08:48:15.857Z,320.63
2023-03-08T08:49:15.861Z,320.63
2023-03-08T08:50:15.857Z,303.75
2023-03-08T08:51:15.868Z,298.13
2023-03-08T08:52:15.865Z,286.88
2023-03-08T08:53:15.917Z,281.25
2023-03-08T08:54:15.920Z,275.63
2023-03-08T08:55:15.875Z,270.00
2023-03-08T08:56:26.238Z,270.00
2023-03-08T08:57:15.872Z,286.88
2023-03-08T08:58:15.891Z,281.25
2023-03-08T08:59:15.886Z,281.25
2023-03-08T09:00:15.939Z,281.25
2023-03-08T09:01:15.891Z,281.25
2023-03-08T09:02:15.953Z,281.25
2023-03-08T09:03:15.891Z,264.38
2023-03-08T09:04:16.027Z,253.13
2023-03-08T09:05:15.950Z,258.75
2023-03-08T09:06:15.910Z,258.75
2023-03-08T09:07:15.902Z,253.13
2023-03-08T09:08:15.914Z,247.50
2023-03-08T09:09:15.909Z,247.50
2023-03-08T09:10:15.922Z,253.13
2023-03-08T09:11:15.915Z,258.75
2023-03-08T09:12:15.924Z,270.00
2023-03-08T09:13:15.972Z,281.25
2023-03-08T09:14:15.927Z,286.88
2023-03-08T09:15:15.932Z,286.88
2023-03-08T09:16:15.984Z,292.50
2023-03-08T09:17:15.927Z,303.75
2023-03-08T09:18:15.938Z,309.38
2023-03-08T09:19:16.048Z,309.38
2023-03-08T09:20:15.944Z,320.63
2023-03-08T09:21:15.940Z,331.88
2023-03-08T09:22:15.951Z,326.25
2023-03-08T09:23:15.966Z,320.63
2023-03-08T09:24:15.951Z,326.25
2023-03-08T09:25:15.952Z,320.63
2023-03-08T09:26:15.964Z,315.00
2023-03-08T09:27:15.965Z,309.38
2023-03-08T09:28:15.964Z,298.13
2023-03-08T09:29:15.970Z,303.75
2023-03-08T09:30:15.975Z,303.75
2023-03-08T09:31:15.987Z,298.13
2023-03-08T09:32:16.149Z,292.50
2023-03-08T09:33:15.981Z,286.88
2023-03-08T09:34:15.986Z,292.50
2023-03-08T09:35:15.988Z,303.75
2023-03-08T09:36:15.988Z,303.75
2023-03-08T09:37:15.985Z,292.50
2023-03-08T09:38:15.996Z,281.25
2023-03-08T09:39:15.999Z,275.63
2023-03-08T09:40:16.007Z,286.88
2023-03-08T09:41:16.014Z,298.13
2023-03-08T09:42:15.999Z,326.25
2023-03-08T09:43:16.010Z,371.25
2023-03-08T09:44:16.006Z,393.75
2023-03-08T09:45:16.015Z,416.25
2023-03-08T09:46:16.020Z,455.63
2023-03-08T09:47:16.012Z,427.50
2023-03-08T09:48:16.133Z,399.38
2023-03-08T09:49:16.028Z,382.50
2023-03-08T09:50:16.024Z,360.00
2023-03-08T09:51:16.022Z,337.50
2023-03-08T09:52:16.037Z,337.50
2023-03-08T09:53:16.062Z,337.50
2023-03-08T09:54:16.040Z,348.75
2023-03-08T09:55:16.135Z,354.38
2023-03-08T09:56:16.037Z,348.75
2023-03-08T09:57:16.116Z,331.88
2023-03-08T09:58:16.038Z,315.00
2023-03-08T09:59:16.085Z,320.63
2023-03-08T10:00:16.045Z,337.50
2023-03-08T10:01:16.057Z,365.63
2023-03-08T10:02:16.056Z,405.00
2023-03-08T10:03:16.109Z,450.00
2023-03-08T10:04:16.166Z,511.88
2023-03-08T10:05:16.059Z,528.75
2023-03-08T10:06:16.065Z,585.00
2023-03-08T10:07:16.079Z,613.13
2023-03-08T10:08:16.087Z,630.00
2023-03-08T10:09:16.075Z,652.50
2023-03-08T10:10:16.098Z,613.13
2023-03-08T10:11:16.079Z,562.50
2023-03-08T10:12:16.086Z,613.13
2023-03-08T10:13:16.093Z,607.50
2023-03-08T10:14:16.095Z,556.88
2023-03-08T10:15:16.098Z,556.88
2023-03-08T10:16:16.185Z,562.50
2023-03-08T10:17:16.099Z,562.50
2023-03-08T10:18:16.108Z,500.63
2023-03-08T10:19:16.107Z,427.50
2023-03-08T10:20:16.150Z,421.88
2023-03-08T10:21:16.114Z,438.75
2023-03-08T10:22:16.120Z,478.13
2023-03-08T10:23:16.125Z,461.25
2023-03-08T10:24:16.128Z,478.13
2023-03-08T10:25:16.132Z,540.00
2023-03-08T10:26:16.140Z,568.13
2023-03-08T10:27:16.145Z,585.00
2023-03-08T10:28:16.150Z,607.50
2023-03-08T10:29:16.159Z,607.50
2023-03-08T10:30:16.164Z,590.63
2023-03-08T10:31:16.245Z,613.13
2023-03-08T10:32:16.260Z,601.88
2023-03-08T10:33:16.163Z,607.50
2023-03-08T10:34:16.182Z,635.63
2023-03-08T10:35:16.189Z,618.75
2023-03-08T10:36:16.210Z,573.75
2023-03-08T10:37:16.200Z,545.63
2023-03-08T10:38:16.190Z,511.88
2023-03-08T10:39:16.201Z,483.75
2023-03-08T10:40:16.198Z,478.13
2023-03-08T10:41:16.209Z,506.25
2023-03-08T10:42:16.360Z,568.13
2023-03-08T10:43:16.212Z,579.38
2023-03-08T10:44:16.228Z,585.00
2023-03-08T10:45:16.233Z,601.88
2023-03-08T10:46:16.306Z,596.25
2023-03-08T10:47:16.232Z,528.75
2023-03-08T10:48:16.242Z,489.38
2023-03-08T10:49:16.251Z,500.63
2023-03-08T10:50:16.254Z,461.25
2023-03-08T10:51:16.251Z,438.75
2023-03-08T10:52:16.325Z,433.13
2023-03-08T10:53:16.292Z,444.38
2023-03-08T10:54:16.278Z,427.50
2023-03-08T10:55:16.282Z,405.00
2023-03-08T10:56:16.356Z,388.13
2023-03-08T10:57:16.278Z,371.25
2023-03-08T10:58:16.292Z,371.25
2023-03-08T10:59:16.303Z,371.25
2023-03-08T11:00:16.314Z,376.88
2023-03-08T11:01:16.306Z,388.13
2023-03-08T11:02:16.363Z,405.00
2023-03-08T11:03:16.334Z,427.50
2023-03-08T11:04:16.469Z,438.75
2023-03-08T11:05:16.325Z,438.75
2023-03-08T11:06:16.322Z,450.00
2023-03-08T11:07:16.327Z,433.13
2023-03-08T11:08:16.374Z,399.38
2023-03-08T11:09:16.343Z,382.50
2023-03-08T11:10:16.386Z,371.25
2023-03-08T11:11:16.361Z,376.88
2023-03-08T11:12:16.481Z,399.38
2023-03-08T11:13:16.359Z,438.75
2023-03-08T11:14:16.419Z,455.63
2023-03-08T11:15:16.369Z,478.13
2023-03-08T11:16:16.425Z,483.75
2023-03-08T11:17:16.380Z,500.63
2023-03-08T11:18:16.378Z,466.88
2023-03-08T11:19:16.423Z,433.13
2023-03-08T11:20:16.399Z,416.25
2023-03-08T11:21:16.395Z,410.63
2023-03-08T11:22:16.406Z,405.00
2023-03-08T11:23:16.410Z,388.13
2023-03-08T11:24:16.445Z,371.25
2023-03-08T11:25:16.416Z,348.75
2023-03-08T11:26:16.419Z,348.75
2023-03-08T11:27:16.487Z,348.75
2023-03-08T11:28:16.418Z,348.75
2023-03-08T11:29:16.474Z,348.75
2023-03-08T11:30:16.431Z,365.63
2023-03-08T11:31:16.493Z,376.88
2023-03-08T11:32:16.600Z,365.63
2023-03-08T11:33:16.612Z,337.50
2023-03-08T11:34:16.454Z,303.75
2023-03-08T11:35:16.455Z,270.00
2023-03-08T11:36:16.469Z,253.13
2023-03-08T11:37:16.463Z,247.50
2023-03-08T11:38:16.469Z,253.13
2023-03-08T11:39:16.475Z,270.00
2023-03-08T11:40:16.564Z,281.25
2023-03-08T11:41:16.480Z,292.50
2023-03-08T11:42:16.615Z,292.50
2023-03-08T11:43:16.482Z,286.88
2023-03-08T11:44:16.492Z,275.63
2023-03-08T11:45:16.495Z,264.38
2023-03-08T11:46:16.555Z,258.75
2023-03-08T11:47:16.495Z,258.75
2023-03-08T11:48:16.510Z,253.13
2023-03-08T11:49:16.509Z,253.13
2023-03-08T11:50:16.513Z,253.13
2023-03-08T11:51:16.512Z,258.75
2023-03-08T11:52:16.518Z,253.13
2023-03-08T11:53:16.536Z,253.13
2023-03-08T11:54:16.531Z,247.50
2023-03-08T11:55:16.630Z,247.50
2023-03-08T11:56:16.571Z,241.88
2023-03-08T11:57:16.533Z,236.25
2023-03-08T11:58:16.541Z,236.25
2023-03-08T11:59:16.546Z,236.25
2023-03-08T12:00:16.547Z,236.25
2023-03-08T12:01:16.544Z,230.63
2023-03-08T12:02:16.548Z,219.38
2023-03-08T12:03:16.627Z,219.38
2023-03-08T12:04:16.586Z,202.50
2023-03-08T12:05:16.686Z,196.88
2023-03-08T12:06:28.238Z,196.88
2023-03-08T12:07:16.674Z,202.50
2023-03-08T12:08:16.586Z,202.50
2023-03-08T12:09:16.604Z,196.88
2023-03-08T12:10:16.726Z,185.63
2023-03-08T12:11:16.576Z,168.75
2023-03-08T12:12:16.618Z,163.13
2023-03-08T12:13:16.610Z,163.13
2023-03-08T12:14:16.587Z,168.75
2023-03-08T12:15:16.661Z,180.00
2023-03-08T12:16:16.658Z,185.63
2023-03-08T12:17:16.648Z,196.88
2023-03-08T12:18:16.595Z,208.13
2023-03-08T12:19:16.613Z,219.38
2023-03-08T12:20:16.622Z,225.00
2023-03-08T12:21:16.613Z,225.00
2023-03-08T12:22:16.626Z,225.00
2023-03-08T12:23:16.617Z,213.75
2023-03-08T12:24:16.673Z,202.50
2023-03-08T12:25:16.625Z,185.63
2023-03-08T12:26:16.656Z,168.75
2023-03-08T12:27:16.625Z,163.13
2023-03-08T12:28:16.724Z,157.50
2023-03-08T12:29:16.710Z,163.13
2023-03-08T12:30:16.635Z,168.75
2023-03-08T12:31:26.909Z,174.38
2023-03-08T12:32:17.016Z,174.38
2023-03-08T12:33:59.204Z,180.00
2023-03-08T12:34:59.196Z,168.75
2023-03-08T12:35:59.342Z,157.50
2023-03-08T12:36:59.240Z,151.88
2023-03-08T12:37:59.415Z,146.25
2023-03-08T12:38:59.210Z,135.00
2023-03-08T12:39:59.208Z,135.00
2023-03-08T12:40:59.216Z,140.63
2023-03-08T12:41:59.215Z,135.00
2023-03-08T12:42:59.216Z,135.00
2023-03-08T12:43:59.240Z,140.63
2023-03-08T12:44:59.247Z,151.88
2023-03-08T12:45:59.434Z,157.50
2023-03-08T12:47:46.832Z,163.13
2023-03-08T12:48:46.898Z,157.50
2023-03-08T12:49:46.976Z,151.88
2023-03-08T12:50:46.811Z,146.25
2023-03-08T12:51:46.841Z,140.63
2023-03-08T12:52:46.878Z,135.00
2023-03-08T12:53:46.798Z,123.75